sensor_id;sensor_type;location;lat;lon;timestamp;pressure;altitude;pressure_sealevel;temperature;humidity
74675;BME280;63200;48.810;12.352;2023-08-08T00:00:00;97647.75;;;9.29;100.00
74675;BME280;63200;48.810;12.352;2023-08-08T00:02:26;97642.34;;;9.24;100.00
74675;BME280;63200;48.810;12.352;2023-08-08T00:04:52;97627.44;;;9.06;100.00
74675;BME280;63200;48.810;12.352;2023-08-08T00:07:18;97643.13;;;9.09;100.00
74675;BME280;63200;48.810;12.352;2023-08-08T00:09:43;97616.31;;;8.76;100.00
74675;BME280;63200;48.810;12.352;2023-08-08T00:12:09;97638.78;;;8.82;100.00
74675;BME280;63200;48.810;12.352;2023-08-08T00:14:34;97643.91;;;8.68;100.00
74675;BME280;63200;48.810;12.352;2023-08-08T00:16:59;97651.19;;;8.62;100.00
74675;BME280;63200;48.810;12.352;2023-08-08T00:19:25;97644.16;;;8.56;100.00
74675;BME280;63200;48.810;12.352;2023-08-08T00:21:50;97648.50;;;8.52;100.00
74675;BME280;63200;48.810;12.352;2023-08-08T00:24:15;97634.13;;;8.46;100.00
74675;BME280;63200;48.810;12.352;2023-08-08T00:26:41;97645.19;;;8.45;100.00
74675;BME280;63200;48.810;12.352;2023-08-08T00:29:06;97630.00;;;8.39;100.00
74675;BME280;63200;48.810;12.352;2023-08-08T00:31:31;97591.81;;;8.14;100.00
74675;BME280;63200;48.810;12.352;2023-08-08T00:33:57;97623.28;;;8.46;100.00
74675;BME280;63200;48.810;12.352;2023-08-08T00:36:22;97616.28;;;8.45;100.00
74675;BME280;63200;48.810;12.352;2023-08-08T00:38:47;97628.72;;;8.57;100.00
74675;BME280;63200;48.810;12.352;2023-08-08T00:41:14;97634.69;;;8.59;100.00
74675;BME280;63200;48.810;12.352;2023-08-08T00:43:39;97630.38;;;8.58;100.00
74675;BME280;63200;48.810;12.352;2023-08-08T00:46:04;97629.56;;;8.52;100.00
74675;BME280;63200;48.810;12.352;2023-08-08T00:48:30;97632.78;;;8.54;100.00
74675;BME280;63200;48.810;12.352;2023-08-08T00:50:56;97623.88;;;8.54;100.00
74675;BME280;63200;48.810;12.352;2023-08-08T00:53:21;97611.13;;;8.49;100.00
74675;BME280;63200;48.810;12.352;2023-08-08T00:55:48;97622.25;;;8.58;100.00
74675;BME280;63200;48.810;12.352;2023-08-08T00:58:14;97625.22;;;8.56;100.00
74675;BME280;63200;48.810;12.352;2023-08-08T01:00:40;97629.03;;;8.60;100.00
74675;BME280;63200;48.810;12.352;2023-08-08T01:03:07;97623.88;;;8.64;100.00
74675;BME280;63200;48.810;12.352;2023-08-08T01:05:38;97632.00;;;8.64;100.00
74675;BME280;63200;48.810;12.352;2023-08-08T01:08:07;97630.91;;;8.65;100.00
74675;BME280;63200;48.810;12.352;2023-08-08T01:10:40;97625.75;;;8.63;100.00
74675;BME280;63200;48.810;12.352;2023-08-08T01:13:15;97617.38;;;8.60;100.00
74675;BME280;63200;48.810;12.352;2023-08-08T01:15:42;97613.06;;;8.59;100.00
74675;BME280;63200;48.810;12.352;2023-08-08T01:18:09;97603.28;;;8.53;100.00
74675;BME280;63200;48.810;12.352;2023-08-08T01:20:36;97581.09;;;8.45;100.00
74675;BME280;63200;48.810;12.352;2023-08-08T01:23:13;97621.19;;;8.79;100.00
74675;BME280;63200;48.810;12.352;2023-08-08T01:25:40;97619.84;;;8.87;100.00
74675;BME280;63200;48.810;12.352;2023-08-08T01:28:06;97622.28;;;8.94;100.00
74675;BME280;63200;48.810;12.352;2023-08-08T01:30:32;97619.03;;;8.97;100.00
74675;BME280;63200;48.810;12.352;2023-08-08T01:32:58;97598.19;;;8.87;100.00
74675;BME280;63200;48.810;12.352;2023-08-08T01:35:25;97606.03;;;8.99;100.00
74675;BME280;63200;48.810;12.352;2023-08-08T01:37:54;97622.81;;;9.11;100.00
74675;BME280;63200;48.810;12.352;2023-08-08T01:40:25;97609.81;;;9.13;100.00
74675;BME280;63200;48.810;12.352;2023-08-08T01:42:50;97607.13;;;9.13;100.00
74675;BME280;63200;48.810;12.352;2023-08-08T01:45:16;97600.06;;;9.07;100.00
74675;BME280;63200;48.810;12.352;2023-08-08T01:47:42;97580.59;;;8.95;100.00
74675;BME280;63200;48.810;12.352;2023-08-08T01:50:08;97599.78;;;9.19;100.00
74675;BME280;63200;48.810;12.352;2023-08-08T01:52:34;97597.63;;;9.21;100.00
74675;BME280;63200;48.810;12.352;2023-08-08T01:54:59;97592.50;;;9.25;100.00
74675;BME280;63200;48.810;12.352;2023-08-08T01:57:25;97588.41;;;9.32;100.00
74675;BME280;63200;48.810;12.352;2023-08-08T01:59:50;97587.31;;;9.39;100.00
74675;BME280;63200;48.810;12.352;2023-08-08T02:02:15;97581.34;;;9.37;100.00
74675;BME280;63200;48.810;12.352;2023-08-08T02:04:42;97585.16;;;9.46;100.00
74675;BME280;63200;48.810;12.352;2023-08-08T02:07:07;97581.59;;;9.50;100.00
74675;BME280;63200;48.810;12.352;2023-08-08T02:09:33;97586.22;;;9.50;100.00
74675;BME280;63200;48.810;12.352;2023-08-08T02:11:58;97591.34;;;9.57;100.00
74675;BME280;63200;48.810;12.352;2023-08-08T02:14:23;97586.44;;;9.64;100.00
74675;BME280;63200;48.810;12.352;2023-08-08T02:16:49;97596.19;;;9.70;100.00
74675;BME280;63200;48.810;12.352;2023-08-08T02:19:14;97594.53;;;9.74;100.00
74675;BME280;63200;48.810;12.352;2023-08-08T02:21:40;97598.88;;;9.75;100.00
74675;BME280;63200;48.810;12.352;2023-08-08T02:24:05;97597.78;;;9.76;100.00
74675;BME280;63200;48.810;12.352;2023-08-08T02:26:31;97582.63;;;9.70;100.00
74675;BME280;63200;48.810;12.352;2023-08-08T02:28:56;97591.81;;;9.79;100.00
74675;BME280;63200;48.810;12.352;2023-08-08T02:31:21;97599.38;;;9.82;100.00
74675;BME280;63200;48.810;12.352;2023-08-08T02:33:50;97602.09;;;9.88;100.00
74675;BME280;63200;48.810;12.352;2023-08-08T02:36:16;97601.00;;;9.89;100.00
74675;BME280;63200;48.810;12.352;2023-08-08T02:38:42;97598.00;;;9.90;100.00
74675;BME280;63200;48.810;12.352;2023-08-08T02:41:07;97599.34;;;9.93;100.00
74675;BME280;63200;48.810;12.352;2023-08-08T02:43:33;97558.22;;;9.70;100.00
74675;BME280;63200;48.810;12.352;2023-08-08T02:45:58;97596.06;;;10.01;100.00
74675;BME280;63200;48.810;12.352;2023-08-08T02:48:23;97593.34;;;10.06;100.00
74675;BME280;63200;48.810;12.352;2023-08-08T02:50:48;97588.97;;;10.10;100.00
74675;BME280;63200;48.810;12.352;2023-08-08T02:53:14;97593.03;;;10.13;100.00
74675;BME280;63200;48.810;12.352;2023-08-08T02:55:39;97585.94;;;10.17;100.00
74675;BME280;63200;48.810;12.352;2023-08-08T02:58:04;97567.00;;;10.07;100.00
74675;BME280;63200;48.810;12.352;2023-08-08T03:00:30;97595.69;;;10.23;100.00
74675;BME280;63200;48.810;12.352;2023-08-08T03:02:55;97596.25;;;10.20;100.00
74675;BME280;63200;48.810;12.352;2023-08-08T03:05:20;97592.44;;;10.21;100.00
74675;BME280;63200;48.810;12.352;2023-08-08T03:07:46;97597.88;;;10.21;100.00
74675;BME280;63200;48.810;12.352;2023-08-08T03:10:12;97582.41;;;10.22;100.00
74675;BME280;63200;48.810;12.352;2023-08-08T03:12:37;97589.41;;;10.28;100.00
74675;BME280;63200;48.810;12.352;2023-08-08T03:15:03;97576.41;;;10.30;100.00
74675;BME280;63200;48.810;12.352;2023-08-08T03:17:29;97581.81;;;10.30;100.00
74675;BME280;63200;48.810;12.352;2023-08-08T03:19:54;97583.16;;;10.32;100.00
74675;BME280;63200;48.810;12.352;2023-08-08T03:22:20;97588.34;;;10.29;100.00
74675;BME280;63200;48.810;12.352;2023-08-08T03:24:45;97580.75;;;10.31;100.00
74675;BME280;63200;48.810;12.352;2023-08-08T03:27:11;97582.38;;;10.32;100.00
74675;BME280;63200;48.810;12.352;2023-08-08T03:29:36;97579.38;;;10.33;100.00
74675;BME280;63200;48.810;12.352;2023-08-08T03:32:02;97578.28;;;10.34;100.00
74675;BME280;63200;48.810;12.352;2023-08-08T03:34:29;97580.16;;;10.34;100.00
74675;BME280;63200;48.810;12.352;2023-08-08T03:36:54;97580.44;;;10.32;100.00
74675;BME280;63200;48.810;12.352;2023-08-08T03:39:19;97583.97;;;10.38;100.00
74675;BME280;63200;48.810;12.352;2023-08-08T03:41:45;97584.50;;;10.40;100.00
74675;BME280;63200;48.810;12.352;2023-08-08T03:44:10;97591.56;;;10.41;100.00
74675;BME280;63200;48.810;12.352;2023-08-08T03:46:35;97581.50;;;10.42;100.00
74675;BME280;63200;48.810;12.352;2023-08-08T03:49:01;97581.50;;;10.42;100.00
74675;BME280;63200;48.810;12.352;2023-08-08T03:51:26;97578.78;;;10.42;100.00
74675;BME280;63200;48.810;12.352;2023-08-08T03:53:51;97573.66;;;10.40;100.00
74675;BME280;63200;48.810;12.352;2023-08-08T03:56:17;97557.94;;;10.32;100.00
74675;BME280;63200;48.810;12.352;2023-08-08T03:58:42;97544.16;;;10.23;100.00
74675;BME280;63200;48.810;12.352;2023-08-08T04:01:08;97573.63;;;10.45;100.00
74675;BME280;63200;48.810;12.352;2023-08-08T04:03:33;97576.84;;;10.47;100.00
74675;BME280;63200;48.810;12.352;2023-08-08T04:05:58;97574.97;;;10.48;100.00
74675;BME280;63200;48.810;12.352;2023-08-08T04:08:24;97581.75;;;10.50;100.00
74675;BME280;63200;48.810;12.352;2023-08-08T04:10:49;97578.44;;;10.54;100.00
74675;BME280;63200;48.810;12.352;2023-08-08T04:13:15;97582.25;;;10.53;100.00
74675;BME280;63200;48.810;12.352;2023-08-08T04:15:40;97585.53;;;10.49;100.00
74675;BME280;63200;48.810;12.352;2023-08-08T04:18:06;97576.88;;;10.42;100.00
74675;BME280;63200;48.810;12.352;2023-08-08T04:20:32;97592.31;;;10.52;100.00
74675;BME280;63200;48.810;12.352;2023-08-08T04:22:58;97599.09;;;10.55;100.00
74675;BME280;63200;48.810;12.352;2023-08-08T04:25:23;97593.94;;;10.53;100.00
74675;BME280;63200;48.810;12.352;2023-08-08T04:27:49;97590.09;;;10.59;100.00
74675;BME280;63200;48.810;12.352;2023-08-08T04:30:14;97596.56;;;10.63;100.00
74675;BME280;63200;48.810;12.352;2023-08-08T04:32:39;97594.91;;;10.67;100.00
74675;BME280;63200;48.810;12.352;2023-08-08T04:35:05;97598.16;;;10.70;100.00
74675;BME280;63200;48.810;12.352;2023-08-08T04:37:30;97606.31;;;10.70;100.00
74675;BME280;63200;48.810;12.352;2023-08-08T04:39:56;97598.13;;;10.75;100.00
74675;BME280;63200;48.810;12.352;2023-08-08T04:42:21;97603.00;;;10.78;100.00
74675;BME280;63200;48.810;12.352;2023-08-08T04:44:47;97606.00;;;10.76;100.00
74675;BME280;63200;48.810;12.352;2023-08-08T04:47:12;97603.28;;;10.76;100.00
74675;BME280;63200;48.810;12.352;2023-08-08T04:49:37;97609.78;;;10.75;100.00
74675;BME280;63200;48.810;12.352;2023-08-08T04:52:03;97603.84;;;10.73;100.00
74675;BME280;63200;48.810;12.352;2023-08-08T04:54:29;97609.28;;;10.73;100.00
74675;BME280;63200;48.810;12.352;2023-08-08T04:56:54;97591.38;;;10.67;100.00
74675;BME280;63200;48.810;12.352;2023-08-08T04:59:20;97604.13;;;10.72;100.00
74675;BME280;63200;48.810;12.352;2023-08-08T05:01:45;97606.00;;;10.76;100.00
74675;BME280;63200;48.810;12.352;2023-08-08T05:04:10;97609.25;;;10.78;100.00
74675;BME280;63200;48.810;12.352;2023-08-08T05:06:36;97614.91;;;10.82;100.00
74675;BME280;63200;48.810;12.352;2023-08-08T05:09:01;97612.47;;;10.80;100.00
74675;BME280;63200;48.810;12.352;2023-08-08T05:11:26;97607.59;;;10.82;100.00
74675;BME280;63200;48.810;12.352;2023-08-08T05:13:51;97611.59;;;10.90;100.00
74675;BME280;63200;48.810;12.352;2023-08-08T05:16:18;97615.84;;;11.02;100.00
74675;BME280;63200;48.810;12.352;2023-08-08T05:18:43;97613.25;;;11.21;100.00
74675;BME280;63200;48.810;12.352;2023-08-08T05:21:11;97590.91;;;11.29;100.00
74675;BME280;63200;48.810;12.352;2023-08-08T05:23:36;97612.22;;;11.46;100.00
74675;BME280;63200;48.810;12.352;2023-08-08T05:26:02;97615.22;;;11.44;100.00
74675;BME280;63200;48.810;12.352;2023-08-08T05:28:28;97604.91;;;11.41;100.00
74675;BME280;63200;48.810;12.352;2023-08-08T05:30:53;97607.88;;;11.45;100.00
74675;BME280;63200;48.810;12.352;2023-08-08T05:33:19;97614.09;;;11.45;100.00
74675;BME280;63200;48.810;12.352;2023-08-08T05:35:44;97606.16;;;11.54;100.00
74675;BME280;63200;48.810;12.352;2023-08-08T05:38:10;97602.50;;;11.64;100.00
74675;BME280;63200;48.810;12.352;2023-08-08T05:40:35;97609.69;;;11.79;100.00
74675;BME280;63200;48.810;12.352;2023-08-08T05:43:02;97609.25;;;11.96;100.00
74675;BME280;63200;48.810;12.352;2023-08-08T05:45:27;97609.81;;;12.17;100.00
74675;BME280;63200;48.810;12.352;2023-08-08T05:47:52;97614.81;;;12.29;100.00
74675;BME280;63200;48.810;12.352;2023-08-08T05:50:18;97612.34;;;12.32;100.00
74675;BME280;63200;48.810;12.352;2023-08-08T05:52:44;97617.47;;;12.34;100.00
74675;BME280;63200;48.810;12.352;2023-08-08T05:55:09;97607.25;;;12.26;100.00
74675;BME280;63200;48.810;12.352;2023-08-08T05:57:35;97602.09;;;12.24;100.00
74675;BME280;63200;48.810;12.352;2023-08-08T06:00:00;97601.88;;;12.21;100.00
74675;BME280;63200;48.810;12.352;2023-08-08T06:02:25;97618.91;;;12.50;100.00
74675;BME280;63200;48.810;12.352;2023-08-08T06:04:51;97591.66;;;12.70;100.00
74675;BME280;63200;48.810;12.352;2023-08-08T06:07:16;97598.63;;;12.95;100.00
74675;BME280;63200;48.810;12.352;2023-08-08T06:09:41;97609.81;;;13.45;100.00
74675;BME280;63200;48.810;12.352;2023-08-08T06:12:07;97620.34;;;13.52;100.00
74675;BME280;63200;48.810;12.352;2023-08-08T06:14:33;97624.72;;;13.67;100.00
74675;BME280;63200;48.810;12.352;2023-08-08T06:16:58;97618.44;;;13.66;100.00
74675;BME280;63200;48.810;12.352;2023-08-08T06:19:23;97593.88;;;13.53;100.00
74675;BME280;63200;48.810;12.352;2023-08-08T06:21:49;97612.19;;;13.94;100.00
74675;BME280;63200;48.810;12.352;2023-08-08T06:24:15;97599.56;;;13.84;100.00
74675;BME280;63200;48.810;12.352;2023-08-08T06:26:40;97619.88;;;14.06;100.00
74675;BME280;63200;48.810;12.352;2023-08-08T06:29:06;97594.00;;;13.89;100.00
74675;BME280;63200;48.810;12.352;2023-08-08T06:31:31;97623.94;;;14.22;100.00
74675;BME280;63200;48.810;12.352;2023-08-08T06:33:56;97608.63;;;14.35;100.00
74675;BME280;63200;48.810;12.352;2023-08-08T06:36:22;97611.41;;;14.58;100.00
74675;BME280;63200;48.810;12.352;2023-08-08T06:38:47;97613.06;;;14.95;100.00
74675;BME280;63200;48.810;12.352;2023-08-08T06:41:13;97603.47;;;15.07;100.00
74675;BME280;63200;48.810;12.352;2023-08-08T06:43:39;97621.94;;;15.24;100.00
74675;BME280;63200;48.810;12.352;2023-08-08T06:46:04;97601.25;;;14.86;100.00
74675;BME280;63200;48.810;12.352;2023-08-08T06:48:30;97607.06;;;14.71;100.00
74675;BME280;63200;48.810;12.352;2023-08-08T06:50:55;97610.72;;;14.66;100.00
74675;BME280;63200;48.810;12.352;2023-08-08T06:53:20;97610.72;;;14.66;100.00
74675;BME280;63200;48.810;12.352;2023-08-08T06:55:46;97617.47;;;15.05;100.00
74675;BME280;63200;48.810;12.352;2023-08-08T06:58:11;97609.25;;;15.51;100.00
74675;BME280;63200;48.810;12.352;2023-08-08T07:00:36;97607.31;;;15.82;100.00
74675;BME280;63200;48.810;12.352;2023-08-08T07:03:02;97580.97;;;16.04;100.00
74675;BME280;63200;48.810;12.352;2023-08-08T07:05:27;97601.22;;;16.43;98.34
74675;BME280;63200;48.810;12.352;2023-08-08T07:07:53;97595.56;;;16.57;93.67
74675;BME280;63200;48.810;12.352;2023-08-08T07:10:18;97590.75;;;16.72;93.17
74675;BME280;63200;48.810;12.352;2023-08-08T07:12:44;97551.41;;;16.68;87.62
74675;BME280;63200;48.810;12.352;2023-08-08T07:15:09;97588.50;;;16.74;85.62
74675;BME280;63200;48.810;12.352;2023-08-08T07:17:35;97579.00;;;16.97;88.22
74675;BME280;63200;48.810;12.352;2023-08-08T07:20:01;97583.34;;;16.98;86.01
74675;BME280;63200;48.810;12.352;2023-08-08T07:22:27;97589.31;;;17.18;82.78
74675;BME280;63200;48.810;12.352;2023-08-08T07:24:52;97554.25;;;17.24;83.12
74675;BME280;63200;48.810;12.352;2023-08-08T07:27:18;97555.28;;;17.02;77.63
74675;BME280;63200;48.810;12.352;2023-08-08T07:29:43;97577.06;;;17.07;80.30
74675;BME280;63200;48.810;12.352;2023-08-08T07:32:08;97574.13;;;17.21;78.18
74675;BME280;63200;48.810;12.352;2023-08-08T07:34:34;97565.84;;;17.47;78.88
74675;BME280;63200;48.810;12.352;2023-08-08T07:37:00;97563.66;;;17.14;75.26
74675;BME280;63200;48.810;12.352;2023-08-08T07:39:25;97557.66;;;17.29;82.07
74675;BME280;63200;48.810;12.352;2023-08-08T07:41:51;97543.38;;;17.45;79.48
74675;BME280;63200;48.810;12.352;2023-08-08T07:44:17;97562.00;;;17.78;76.21
74675;BME280;63200;48.810;12.352;2023-08-08T07:46:42;97570.53;;;17.38;71.53
74675;BME280;63200;48.810;12.352;2023-08-08T07:49:07;97562.47;;;17.32;74.66
74675;BME280;63200;48.810;12.352;2023-08-08T07:51:34;97563.25;;;17.42;74.90
74675;BME280;63200;48.810;12.352;2023-08-08T07:54:00;97551.56;;;17.15;79.68
74675;BME280;63200;48.810;12.352;2023-08-08T07:56:25;97539.72;;;17.32;78.67
74675;BME280;63200;48.810;12.352;2023-08-08T07:58:51;97561.69;;;17.32;76.86
74675;BME280;63200;48.810;12.352;2023-08-08T08:01:17;97562.72;;;16.92;75.90
74675;BME280;63200;48.810;12.352;2023-08-08T08:03:43;97557.69;;;16.94;77.03
74675;BME280;63200;48.810;12.352;2023-08-08T08:06:08;97556.75;;;16.99;78.70
74675;BME280;63200;48.810;12.352;2023-08-08T08:08:33;97541.72;;;17.14;77.63
74675;BME280;63200;48.810;12.352;2023-08-08T08:10:59;97565.91;;;17.21;76.57
74675;BME280;63200;48.810;12.352;2023-08-08T08:13:24;97533.94;;;17.25;75.03
74675;BME280;63200;48.810;12.352;2023-08-08T08:15:49;97540.66;;;17.45;72.98
74675;BME280;63200;48.810;12.352;2023-08-08T08:18:15;97558.97;;;17.71;75.38
74675;BME280;63200;48.810;12.352;2023-08-08T08:20:43;97551.28;;;17.94;71.84
74675;BME280;63200;48.810;12.352;2023-08-08T08:23:09;97552.88;;;17.56;71.65
74675;BME280;63200;48.810;12.352;2023-08-08T08:25:34;97547.47;;;17.39;73.85
74675;BME280;63200;48.810;12.352;2023-08-08T08:28:00;97551.84;;;17.78;75.60
74675;BME280;63200;48.810;12.352;2023-08-08T08:30:25;97543.53;;;17.96;70.13
74675;BME280;63200;48.810;12.352;2023-08-08T08:32:52;97535.72;;;17.68;71.42
74675;BME280;63200;48.810;12.352;2023-08-08T08:35:17;97538.88;;;17.49;75.13
74675;BME280;63200;48.810;12.352;2023-08-08T08:37:43;97532.22;;;17.03;74.67
74675;BME280;63200;48.810;12.352;2023-08-08T08:40:09;97513.03;;;16.59;73.85
74675;BME280;63200;48.810;12.352;2023-08-08T08:42:35;97524.97;;;16.54;77.40
74675;BME280;63200;48.810;12.352;2023-08-08T08:45:03;97539.91;;;17.18;80.78
74675;BME280;63200;48.810;12.352;2023-08-08T08:47:30;97486.66;;;17.28;74.88
74675;BME280;63200;48.810;12.352;2023-08-08T08:49:56;97540.25;;;17.64;69.76
74675;BME280;63200;48.810;12.352;2023-08-08T08:52:22;97542.28;;;18.14;66.89
74675;BME280;63200;48.810;12.352;2023-08-08T08:54:51;97509.88;;;18.29;67.61
74675;BME280;63200;48.810;12.352;2023-08-08T08:57:16;97534.59;;;18.71;66.51
74675;BME280;63200;48.810;12.352;2023-08-08T08:59:42;97513.56;;;18.88;63.71
74675;BME280;63200;48.810;12.352;2023-08-08T09:02:07;97524.91;;;19.78;58.65
74675;BME280;63200;48.810;12.352;2023-08-08T09:04:33;97532.88;;;19.34;59.33
74675;BME280;63200;48.810;12.352;2023-08-08T09:07:00;97520.56;;;18.64;62.02
74675;BME280;63200;48.810;12.352;2023-08-08T09:09:26;97533.81;;;18.50;64.14
74675;BME280;63200;48.810;12.352;2023-08-08T09:11:52;97531.50;;;18.09;65.71
74675;BME280;63200;48.810;12.352;2023-08-08T09:14:23;97531.56;;;17.92;66.84
74675;BME280;63200;48.810;12.352;2023-08-08T09:16:49;97529.47;;;19.03;64.48
74675;BME280;63200;48.810;12.352;2023-08-08T09:19:15;97532.22;;;20.48;58.13
74675;BME280;63200;48.810;12.352;2023-08-08T09:21:42;97516.94;;;21.07;57.26
74675;BME280;63200;48.810;12.352;2023-08-08T09:24:08;97513.16;;;21.28;54.16
74675;BME280;63200;48.810;12.352;2023-08-08T09:26:34;97513.91;;;21.57;54.49
74675;BME280;63200;48.810;12.352;2023-08-08T09:29:02;97508.19;;;21.82;50.22
74675;BME280;63200;48.810;12.352;2023-08-08T09:31:29;97483.16;;;21.58;51.81
74675;BME280;63200;48.810;12.352;2023-08-08T09:33:57;97524.13;;;21.40;51.09
74675;BME280;63200;48.810;12.352;2023-08-08T09:36:23;97517.09;;;22.26;52.49
74675;BME280;63200;48.810;12.352;2023-08-08T09:38:49;97514.84;;;22.87;52.46
74675;BME280;63200;48.810;12.352;2023-08-08T09:41:15;97508.81;;;22.82;50.19
74675;BME280;63200;48.810;12.352;2023-08-08T09:43:45;97481.91;;;21.24;52.04
74675;BME280;63200;48.810;12.352;2023-08-08T09:46:12;97508.41;;;21.57;53.67
74675;BME280;63200;48.810;12.352;2023-08-08T09:48:39;97509.22;;;21.13;53.74
74675;BME280;63200;48.810;12.352;2023-08-08T09:51:06;97507.22;;;20.97;53.43
74675;BME280;63200;48.810;12.352;2023-08-08T09:53:31;97506.34;;;20.93;55.68
74675;BME280;63200;48.810;12.352;2023-08-08T09:55:57;97503.44;;;21.18;52.47
74675;BME280;63200;48.810;12.352;2023-08-08T09:58:23;97496.53;;;21.56;54.26
74675;BME280;63200;48.810;12.352;2023-08-08T10:00:51;97515.84;;;20.96;51.76
74675;BME280;63200;48.810;12.352;2023-08-08T10:03:18;97501.34;;;21.59;53.64
74675;BME280;63200;48.810;12.352;2023-08-08T10:05:44;97500.34;;;20.91;52.54
74675;BME280;63200;48.810;12.352;2023-08-08T10:08:09;97494.81;;;21.20;52.93
74675;BME280;63200;48.810;12.352;2023-08-08T10:10:36;97500.56;;;20.70;53.29
74675;BME280;63200;48.810;12.352;2023-08-08T10:13:03;97495.41;;;20.56;51.54
74675;BME280;63200;48.810;12.352;2023-08-08T10:15:28;97500.47;;;20.54;51.56
74675;BME280;63200;48.810;12.352;2023-08-08T10:17:56;97490.38;;;21.63;51.86
74675;BME280;63200;48.810;12.352;2023-08-08T10:20:24;97502.88;;;21.73;49.92
74675;BME280;63200;48.810;12.352;2023-08-08T10:22:52;97503.03;;;21.64;51.60
74675;BME280;63200;48.810;12.352;2023-08-08T10:25:24;97441.28;;;21.56;51.42
74675;BME280;63200;48.810;12.352;2023-08-08T10:28:02;97490.53;;;21.38;51.20
74675;BME280;63200;48.810;12.352;2023-08-08T10:30:28;97496.13;;;21.26;51.59
74675;BME280;63200;48.810;12.352;2023-08-08T10:32:56;97505.31;;;20.86;53.07
74675;BME280;63200;48.810;12.352;2023-08-08T10:35:22;97513.22;;;20.06;53.00
74675;BME280;63200;48.810;12.352;2023-08-08T10:37:54;97511.28;;;19.81;54.47
74675;BME280;63200;48.810;12.352;2023-08-08T10:40:19;97497.13;;;19.71;56.31
74675;BME280;63200;48.810;12.352;2023-08-08T10:42:46;97495.41;;;20.16;54.39
74675;BME280;63200;48.810;12.352;2023-08-08T10:45:14;97504.19;;;20.87;51.87
74675;BME280;63200;48.810;12.352;2023-08-08T10:47:40;97487.22;;;20.72;50.73
74675;BME280;63200;48.810;12.352;2023-08-08T10:50:06;97500.06;;;20.40;50.51
74675;BME280;63200;48.810;12.352;2023-08-08T10:52:37;97491.75;;;20.11;51.99
74675;BME280;63200;48.810;12.352;2023-08-08T10:55:03;97481.31;;;19.68;51.97
74675;BME280;63200;48.810;12.352;2023-08-08T10:57:30;97481.97;;;19.64;52.97
74675;BME280;63200;48.810;12.352;2023-08-08T10:59:55;97462.00;;;19.30;53.09
74675;BME280;63200;48.810;12.352;2023-08-08T11:02:20;97446.31;;;20.62;55.48
74675;BME280;63200;48.810;12.352;2023-08-08T11:04:48;97467.66;;;20.77;51.41
74675;BME280;63200;48.810;12.352;2023-08-08T11:07:14;97450.78;;;20.95;51.03
74675;BME280;63200;48.810;12.352;2023-08-08T11:09:42;97451.72;;;20.71;50.27
74675;BME280;63200;48.810;12.352;2023-08-08T11:12:14;97460.59;;;21.08;49.74
74675;BME280;63200;48.810;12.352;2023-08-08T11:14:40;97439.09;;;20.86;49.04
74675;BME280;63200;48.810;12.352;2023-08-08T11:17:05;97462.94;;;20.78;50.14
74675;BME280;63200;48.810;12.352;2023-08-08T11:19:31;97464.59;;;21.11;49.58
74675;BME280;63200;48.810;12.352;2023-08-08T11:21:57;97459.09;;;21.59;49.88
74675;BME280;63200;48.810;12.352;2023-08-08T11:24:22;97455.53;;;21.10;47.94
74675;BME280;63200;48.810;12.352;2023-08-08T11:26:47;97466.94;;;21.09;48.05
74675;BME280;63200;48.810;12.352;2023-08-08T11:29:13;97433.50;;;20.98;48.98
74675;BME280;63200;48.810;12.352;2023-08-08T11:31:38;97456.31;;;21.91;47.28
74675;BME280;63200;48.810;12.352;2023-08-08T11:34:04;97439.31;;;21.73;46.73
74675;BME280;63200;48.810;12.352;2023-08-08T11:36:34;97451.06;;;21.38;46.27
74675;BME280;63200;48.810;12.352;2023-08-08T11:39:01;97447.59;;;21.25;47.63
74675;BME280;63200;48.810;12.352;2023-08-08T11:41:33;97439.47;;;21.48;47.29
74675;BME280;63200;48.810;12.352;2023-08-08T11:43:59;97429.72;;;20.74;47.95
74675;BME280;63200;48.810;12.352;2023-08-08T11:46:25;97447.16;;;21.55;49.12
74675;BME280;63200;48.810;12.352;2023-08-08T11:48:50;97448.09;;;21.94;46.34
74675;BME280;63200;48.810;12.352;2023-08-08T11:51:16;97444.97;;;21.60;46.57
74675;BME280;63200;48.810;12.352;2023-08-08T11:53:51;97438.13;;;20.94;48.00
74675;BME280;63200;48.810;12.352;2023-08-08T11:56:19;97399.84;;;20.92;49.83
74675;BME280;63200;48.810;12.352;2023-08-08T11:58:44;97442.25;;;20.72;50.22
74675;BME280;63200;48.810;12.352;2023-08-08T12:01:09;97413.09;;;20.71;50.38
74675;BME280;63200;48.810;12.352;2023-08-08T12:03:35;97437.50;;;21.01;50.20
74675;BME280;63200;48.810;12.352;2023-08-08T12:06:14;97439.13;;;20.57;49.41
74675;BME280;63200;48.810;12.352;2023-08-08T12:08:41;97441.34;;;20.39;49.65
74675;BME280;63200;48.810;12.352;2023-08-08T12:11:08;97432.72;;;21.29;50.32
74675;BME280;63200;48.810;12.352;2023-08-08T12:13:34;97441.63;;;22.06;46.21
74675;BME280;63200;48.810;12.352;2023-08-08T12:16:03;97433.94;;;22.16;47.31
74675;BME280;63200;48.810;12.352;2023-08-08T12:18:29;97440.03;;;21.38;45.63
74675;BME280;63200;48.810;12.352;2023-08-08T12:20:55;97431.81;;;21.41;47.65
74675;BME280;63200;48.810;12.352;2023-08-08T12:23:20;97429.16;;;21.45;45.80
74675;BME280;63200;48.810;12.352;2023-08-08T12:25:46;97436.91;;;21.71;46.73
74675;BME280;63200;48.810;12.352;2023-08-08T12:28:11;97405.84;;;20.94;46.74
74675;BME280;63200;48.810;12.352;2023-08-08T12:30:36;97418.19;;;21.01;48.68
74675;BME280;63200;48.810;12.352;2023-08-08T12:33:02;97427.09;;;21.26;48.16
74675;BME280;63200;48.810;12.352;2023-08-08T12:35:27;97417.78;;;22.18;48.45
74675;BME280;63200;48.810;12.352;2023-08-08T12:37:53;97429.84;;;22.88;44.40